Terminal Aerodrome Forecast
Issued by NWS Brownsville, TX

Home | Current Version | Previous Version | Text Only | Print | Product List | Glossary On
Versions: 1 2 3 4 5 6 7 8 9 10 11 12 13 14
000
FTUS44 KBRO 262340
TAFHRL
TAF
KHRL 262340Z 2700/2724 05010KT P6SM BKN120
     FM270300 34008KT P6SM SCT100
      TEMPO 2708/2712 SHRA BKN020
     FM271400 34010KT P6SM BKN030
     FM271800 35012KT P6SM BKN060
      TEMPO 2718/2722 SHRA BKN020=

USA.gov is the U.S. government's official web portal to all federal, state and local government web resources and services.